Time;durP1;ratioP1;P1;durP2;ratioP2;P2;SDS_P1;SDS_P2;PMS_P1;PMS_P2;Temp;Humidity;BMP_temperature;BMP_pressure;BME280_temperature;BME280_humidity;BME280_pressure;Samples;Min_cycle;Max_cycle;Signal;HPM_P1;HPM_P2
2022/07/05 00:00:34;;;;;;;8.98;8.15;;;11.00;99.90;;;;;;6223094;22;20018;-81
2022/07/05 01:12:55;;;;;;;10.48;9.48;;;10.30;99.90;;;;;;6216314;22;20019;-83
2022/07/05 01:15:22;;;;;;;10.02;9.13;;;10.30;99.90;;;;;;6222250;22;20015;-82
2022/07/05 01:17:48;;;;;;;10.05;9.15;;;10.30;99.90;;;;;;6222536;22;20012;-83
2022/07/05 01:20:14;;;;;;;8.27;7.57;;;10.30;99.90;;;;;;6221900;22;20012;-83
2022/07/05 01:23:09;;;;;;;8.07;6.65;;;10.30;99.90;;;;;;6215133;23;20012;-83
2022/07/05 01:25:35;;;;;;;7.22;6.63;;;10.30;99.90;;;;;;6173824;23;20012;-82
2022/07/05 01:38:22;;;;;;;9.15;8.25;;;10.10;99.90;;;;;;6294105;22;20020;-83
2022/07/05 01:40:51;;;;;;;8.68;7.78;;;10.10;99.90;;;;;;6253099;22;20025;-82
2022/07/05 01:43:24;;;;;;;8.45;7.65;;;10.10;99.90;;;;;;6253805;22;20025;-83
2022/07/05 01:45:50;;;;;;;8.77;7.90;;;10.10;99.90;;;;;;6279077;22;20018;-83
2022/07/05 01:48:19;;;;;;;9.73;8.73;;;10.10;99.90;;;;;;6253635;22;20014;-83
2022/07/05 01:50:59;;;;;;;11.10;9.73;;;10.00;99.90;;;;;;6253164;22;20003;-82
2022/07/05 01:53:29;;;;;;;11.10;10.00;;;10.00;99.90;;;;;;6253521;22;20007;-83
2022/07/05 01:55:57;;;;;;;9.23;8.43;;;9.90;99.90;;;;;;6253776;22;20011;-83
2022/07/05 01:58:24;;;;;;;9.65;8.77;;;10.00;99.90;;;;;;6253772;22;20502;-83
2022/07/05 02:00:52;;;;;;;10.02;9.13;;;10.00;99.90;;;;;;6253576;22;20385;-83
2022/07/05 02:03:18;;;;;;;9.05;8.13;;;9.90;99.90;;;;;;6253117;22;20451;-82
2022/07/05 02:05:45;;;;;;;9.25;8.35;;;9.90;99.90;;;;;;6252466;22;20093;-82
2022/07/05 02:08:12;;;;;;;10.00;9.07;;;9.80;99.90;;;;;;6252884;22;20011;-82
2022/07/05 02:10:39;;;;;;;10.77;9.70;;;9.80;99.90;;;;;;6278572;22;20007;-82
2022/07/05 02:13:05;;;;;;;11.02;9.93;;;9.80;99.90;;;;;;6253423;22;20484;-82
2022/07/05 02:15:32;;;;;;;10.75;9.55;;;9.80;99.90;;;;;;6278699;22;20459;-83
2022/07/05 02:17:57;;;;;;;9.60;8.73;;;9.80;99.90;;;;;;6278205;22;20011;-82
2022/07/05 02:20:23;;;;;;;12.07;10.82;;;9.70;99.90;;;;;;6252272;22;20011;-82
2022/07/05 02:22:49;;;;;;;11.48;10.38;;;9.80;99.90;;;;;;6278964;22;20042;-82
2022/07/05 02:25:14;;;;;;;14.40;11.65;;;9.80;99.90;;;;;;6253762;22;20019;-82
2022/07/05 02:27:40;;;;;;;12.23;11.07;;;9.70;99.90;;;;;;6277957;22;20022;-82
2022/07/05 02:30:06;;;;;;;13.80;12.50;;;9.80;99.90;;;;;;6278789;22;20011;-82
2022/07/05 02:32:33;;;;;;;13.88;12.55;;;9.80;99.90;;;;;;6279587;22;20049;-82
2022/07/05 02:34:58;;;;;;;16.00;13.43;;;9.70;99.90;;;;;;6279027;22;20451;-82
2022/07/05 02:37:24;;;;;;;15.93;13.18;;;9.80;99.90;;;;;;6251836;22;20015;-82
2022/07/05 02:39:50;;;;;;;11.07;10.07;;;9.80;99.90;;;;;;6278197;22;20071;-82
2022/07/05 02:42:15;;;;;;;11.40;10.30;;;9.80;99.90;;;;;;6278616;22;20046;-82
2022/07/05 02:44:41;;;;;;;9.82;8.95;;;9.70;99.90;;;;;;6278375;22;20008;-82
2022/07/05 02:47:06;;;;;;;10.45;9.45;;;9.70;99.90;;;;;;6252927;22;20355;-82
2022/07/05 02:49:32;;;;;;;9.93;9.13;;;9.70;99.90;;;;;;6252760;22;20087;-83
2022/07/05 02:51:58;;;;;;;10.55;9.55;;;9.70;99.90;;;;;;6252771;22;20061;-82
2022/07/05 02:54:23;;;;;;;10.77;9.68;;;9.60;99.90;;;;;;6253000;22;20065;-83
2022/07/05 02:56:49;;;;;;;10.68;9.68;;;9.60;99.90;;;;;;6278269;22;20358;-82
2022/07/05 02:59:14;;;;;;;12.57;11.48;;;9.60;99.90;;;;;;6252102;22;20015;-82
2022/07/05 03:01:40;;;;;;;14.15;12.85;;;9.60;99.90;;;;;;6252779;22;20137;-83
2022/07/05 03:04:06;;;;;;;13.27;12.07;;;9.50;99.90;;;;;;6253409;22;20004;-83
2022/07/05 03:06:32;;;;;;;13.82;12.45;;;9.50;99.90;;;;;;6278781;22;20049;-83
2022/07/05 03:08:58;;;;;;;12.75;11.07;;;9.50;99.90;;;;;;6252650;22;20456;-83
2022/07/05 03:11:23;;;;;;;13.30;11.95;;;9.50;99.90;;;;;;6277514;22;20109;-82
2022/07/05 03:13:49;;;;;;;12.63;11.45;;;9.50;99.90;;;;;;6252713;22;20050;-83
2022/07/05 03:16:15;;;;;;;20.02;17.27;;;9.50;99.90;;;;;;6253166;22;20007;-83
2022/07/05 03:18:40;;;;;;;18.33;16.00;;;9.50;99.90;;;;;;6279089;22;20042;-83
2022/07/05 03:21:06;;;;;;;19.70;14.80;;;9.50;99.90;;;;;;6256036;22;20043;-83
2022/07/05 03:23:31;;;;;;;18.67;16.00;;;9.60;99.90;;;;;;6281080;22;20086;-83
2022/07/05 03:25:57;;;;;;;17.33;15.52;;;9.50;99.90;;;;;;6255105;22;20494;-83
2022/07/05 03:28:23;;;;;;;17.60;15.75;;;9.60;99.90;;;;;;6254640;22;20046;-83
2022/07/05 03:30:48;;;;;;;16.30;14.57;;;9.60;99.90;;;;;;6280280;22;20018;-83
2022/07/05 03:33:14;;;;;;;14.52;12.95;;;9.60;99.90;;;;;;6255621;22;20003;-83
2022/07/05 03:35:39;;;;;;;15.25;13.65;;;9.60;99.90;;;;;;6254625;22;20068;-83
2022/07/05 03:38:05;;;;;;;12.90;11.70;;;9.60;99.90;;;;;;6254390;22;20194;-83
2022/07/05 03:40:31;;;;;;;14.63;13.23;;;9.60;99.90;;;;;;6255523;22;20007;-83
2022/07/05 03:42:56;;;;;;;15.23;13.80;;;9.60;99.90;;;;;;6281173;22;20466;-83
2022/07/05 03:45:22;;;;;;;15.50;14.05;;;9.60;99.90;;;;;;6255806;22;20014;-83
2022/07/05 03:47:47;;;;;;;21.83;17.02;;;9.60;99.90;;;;;;6254931;22;20022;-84
2022/07/05 03:50:13;;;;;;;18.85;16.88;;;9.60;99.90;;;;;;6255456;22;20019;-83
2022/07/05 03:52:39;;;;;;;19.27;17.20;;;9.70;99.90;;;;;;6254888;22;20011;-83
2022/07/05 03:55:05;;;;;;;25.88;21.63;;;9.70;99.90;;;;;;6255621;22;20019;-84
2022/07/05 03:57:31;;;;;;;28.60;24.02;;;9.80;99.90;;;;;;6255374;22;20015;-83
2022/07/05 03:59:57;;;;;;;32.92;24.23;;;10.00;99.90;;;;;;6256183;22;20443;-83
2022/07/05 04:02:22;;;;;;;30.40;25.05;;;10.10;99.90;;;;;;6280439;22;20011;-83
2022/07/05 04:04:48;;;;;;;34.60;26.77;;;10.20;99.90;;;;;;6254440;22;20003;-82
2022/07/05 04:07:14;;;;;;;30.88;25.17;;;10.30;99.90;;;;;;6254909;22;20018;-83
2022/07/05 04:09:39;;;;;;;30.25;24.40;;;10.40;99.90;;;;;;6280290;22;20022;-83
2022/07/05 04:12:05;;;;;;;35.38;28.55;;;10.60;99.90;;;;;;6280391;22;20016;-83
2022/07/05 04:14:31;;;;;;;27.90;23.77;;;10.70;99.90;;;;;;6254946;22;20054;-83
2022/07/05 04:16:57;;;;;;;33.45;25.80;;;10.80;99.90;;;;;;6279922;22;20060;-84
2022/07/05 04:19:23;;;;;;;30.80;26.33;;;10.90;99.90;;;;;;6255715;22;20015;-83
2022/07/05 04:21:48;;;;;;;29.25;24.80;;;11.00;99.90;;;;;;6254804;22;20018;-83
2022/07/05 04:24:14;;;;;;;29.77;26.30;;;11.00;99.90;;;;;;6254924;22;20007;-83
2022/07/05 04:26:39;;;;;;;23.20;20.80;;;11.20;99.90;;;;;;6254525;22;20115;-84
2022/07/05 04:29:05;;;;;;;29.95;24.55;;;11.30;99.90;;;;;;6254516;22;20046;-83
2022/07/05 04:31:31;;;;;;;26.98;23.83;;;11.40;99.90;;;;;;6253657;22;20022;-83
2022/07/05 04:33:56;;;;;;;28.05;25.00;;;11.40;99.90;;;;;;6279940;22;20038;-83
2022/07/05 04:36:22;;;;;;;24.13;21.63;;;11.40;99.90;;;;;;6254325;22;20347;-83
2022/07/05 04:38:47;;;;;;;26.00;22.85;;;11.60;99.90;;;;;;6252691;22;20012;-83
2022/07/05 04:41:13;;;;;;;27.92;24.35;;;11.80;99.90;;;;;;6280223;22;20011;-83
2022/07/05 04:43:39;;;;;;;32.67;26.38;;;11.80;99.90;;;;;;6254596;22;20007;-83
2022/07/05 04:46:04;;;;;;;40.78;27.25;;;11.90;99.90;;;;;;6280136;22;20051;-83
2022/07/05 04:48:30;;;;;;;26.30;23.75;;;12.00;99.90;;;;;;6253755;22;20039;-83
2022/07/05 04:50:55;;;;;;;27.10;24.05;;;12.10;99.90;;;;;;6254236;22;20011;-83
2022/07/05 04:53:21;;;;;;;28.35;25.30;;;12.10;99.90;;;;;;6255183;22;20069;-83
2022/07/05 04:55:47;;;;;;;32.22;28.23;;;12.30;99.90;;;;;;6280439;22;20011;-83
2022/07/05 04:58:13;;;;;;;26.52;23.83;;;12.50;99.90;;;;;;6254313;22;20015;-83
2022/07/05 05:00:38;;;;;;;43.95;29.95;;;12.90;99.90;;;;;;6254997;22;20088;-83
2022/07/05 05:03:04;;;;;;;30.58;27.30;;;13.20;99.90;;;;;;6254497;22;20038;-83
2022/07/05 05:05:29;;;;;;;31.42;23.40;;;13.60;99.90;;;;;;6279780;22;20251;-83
2022/07/05 05:07:55;;;;;;;20.42;17.95;;;13.80;99.90;;;;;;6278578;22;20041;-83
2022/07/05 05:10:21;;;;;;;19.30;17.50;;;13.90;99.90;;;;;;6280192;22;20022;-83
2022/07/05 05:12:46;;;;;;;21.45;19.17;;;14.00;99.90;;;;;;6253804;22;20007;-84
2022/07/05 05:15:12;;;;;;;19.25;17.23;;;14.00;99.90;;;;;;6253652;22;20448;-83
2022/07/05 05:17:43;;;;;;;19.30;17.20;;;14.00;99.90;;;;;;6253182;22;20011;-83
2022/07/05 05:20:17;;;;;;;20.13;18.23;;;14.10;99.90;;;;;;6254701;22;20482;-83
2022/07/05 05:22:43;;;;;;;21.83;17.27;;;14.10;99.90;;;;;;6253225;22;20012;-82
2022/07/05 05:25:10;;;;;;;18.75;16.88;;;14.10;99.90;;;;;;6254106;22;20078;-83
2022/07/05 05:27:43;;;;;;;16.70;14.95;;;14.30;99.90;;;;;;6278831;22;20451;-84
2022/07/05 05:30:10;;;;;;;15.90;14.20;;;14.50;99.90;;;;;;6253364;22;20047;-83
2022/07/05 05:32:36;;;;;;;15.77;14.18;;;14.60;99.90;;;;;;6251855;22;20393;-83
2022/07/05 05:35:01;;;;;;;17.05;15.25;;;14.60;99.90;;;;;;6252092;22;20072;-83
2022/07/05 05:37:27;;;;;;;16.33;14.73;;;14.80;99.90;;;;;;6252650;22;20011;-84
2022/07/05 05:39:53;;;;;;;14.27;12.98;;;14.90;99.90;;;;;;6252733;22;20012;-83
2022/07/05 05:42:18;;;;;;;14.52;13.02;;;15.30;99.90;;;;;;6252695;22;20053;-83
2022/07/05 05:44:44;;;;;;;13.88;12.00;;;15.50;99.90;;;;;;6278481;22;20011;-83
2022/07/05 05:47:09;;;;;;;12.23;11.20;;;15.90;99.90;;;;;;6250927;22;20019;-85
2022/07/05 05:49:35;;;;;;;11.63;10.63;;;16.00;99.90;;;;;;6252788;22;20100;-86
2022/07/05 05:52:01;;;;;;;11.38;10.30;;;16.20;99.90;;;;;;6277064;22;20068;-85
2022/07/05 05:54:26;;;;;;;11.35;10.27;;;16.30;99.90;;;;;;6252562;22;20011;-87
2022/07/05 05:56:52;;;;;;;11.60;10.38;;;16.40;99.90;;;;;;6277101;22;20015;-86
2022/07/05 05:59:17;;;;;;;11.70;10.60;;;16.40;99.90;;;;;;6252070;22;20474;-86
2022/07/05 06:01:43;;;;;;;11.13;10.07;;;16.40;99.90;;;;;;6278847;22;20007;-86
2022/07/05 06:04:08;;;;;;;11.65;10.65;;;16.40;99.90;;;;;;6253544;22;20007;-86
2022/07/05 06:06:34;;;;;;;10.15;9.35;;;16.30;99.90;;;;;;6253175;22;20093;-86
2022/07/05 06:09:00;;;;;;;11.27;10.18;;;16.30;99.90;;;;;;6277982;22;20351;-86
2022/07/05 06:11:25;;;;;;;11.55;10.48;;;16.30;99.90;;;;;;6252577;22;20015;-86
2022/07/05 06:13:51;;;;;;;10.63;9.63;;;16.20;99.90;;;;;;6253334;22;20402;-87
2022/07/05 06:16:16;;;;;;;11.75;10.60;;;16.10;99.90;;;;;;6251821;22;20082;-86
2022/07/05 06:18:42;;;;;;;11.55;10.18;;;16.10;99.90;;;;;;6252358;22;20379;-86
2022/07/05 06:21:07;;;;;;;9.07;8.18;;;16.10;99.90;;;;;;6252290;22;20011;-85
2022/07/05 06:23:33;;;;;;;9.48;7.30;;;16.10;99.90;;;;;;6251044;22;20015;-86
2022/07/05 06:25:59;;;;;;;8.23;7.32;;;16.00;99.90;;;;;;6251590;22;20027;-85
2022/07/05 06:28:24;;;;;;;10.50;7.68;;;16.00;99.90;;;;;;6277839;22;20046;-86
2022/07/05 06:30:50;;;;;;;10.90;7.68;;;15.90;99.90;;;;;;6252581;22;20008;-85
2022/07/05 06:33:15;;;;;;;9.57;7.45;;;16.00;99.90;;;;;;6252085;22;20008;-85
2022/07/05 06:35:41;;;;;;;10.43;7.40;;;15.90;99.90;;;;;;6251764;22;20043;-85
2022/07/05 06:38:08;;;;;;;8.75;7.13;;;16.00;99.90;;;;;;6251872;22;20046;-84
2022/07/05 06:40:42;;;;;;;7.65;6.80;;;16.10;99.90;;;;;;6252005;22;20086;-85
2022/07/05 06:43:09;;;;;;;8.05;6.20;;;16.10;99.90;;;;;;6252907;22;20039;-85
2022/07/05 06:45:35;;;;;;;10.55;6.90;;;16.20;99.90;;;;;;6251411;22;20019;-84
2022/07/05 06:48:05;;;;;;;5.97;5.15;;;16.30;99.90;;;;;;6252709;22;20007;-85
2022/07/05 06:50:37;;;;;;;6.75;4.05;;;16.30;99.90;;;;;;6252048;22;20015;-85
2022/07/05 06:53:04;;;;;;;5.22;3.95;;;16.40;99.90;;;;;;6252745;22;20034;-84
2022/07/05 06:55:30;;;;;;;5.45;4.00;;;16.40;99.90;;;;;;6254768;22;20015;-85
2022/07/05 06:58:05;;;;;;;5.55;3.80;;;16.50;99.90;;;;;;6253796;22;20072;-83
2022/07/05 07:00:31;;;;;;;7.45;3.33;;;16.60;99.90;;;;;;6280485;22;20377;-84
2022/07/05 07:02:58;;;;;;;3.03;2.00;;;16.70;99.90;;;;;;6279298;22;20046;-84
2022/07/05 07:05:23;;;;;;;4.90;2.22;;;16.90;99.90;;;;;;6280338;22;20015;-84
2022/07/05 07:10:34;;;;;;;5.00;2.00;;;17.20;99.90;;;;;;6280314;22;20043;-83
2022/07/05 07:13:01;;;;;;;4.38;1.90;;;17.20;99.90;;;;;;6254816;22;20482;-84
2022/07/05 07:15:27;;;;;;;2.63;1.65;;;17.20;99.90;;;;;;6254734;22;20022;-84
2022/07/05 07:17:53;;;;;;;2.97;1.60;;;17.40;99.90;;;;;;6279559;22;20347;-85
2022/07/05 07:20:18;;;;;;;2.90;1.65;;;17.50;99.90;;;;;;6254733;22;20018;-84
2022/07/05 07:22:44;;;;;;;3.35;1.60;;;17.60;99.90;;;;;;6254779;22;20014;-85
2022/07/05 07:25:11;;;;;;;4.97;1.40;;;17.70;99.90;;;;;;6254654;22;20027;-84
2022/07/05 07:27:44;;;;;;;3.60;1.55;;;17.80;99.90;;;;;;6253931;22;20022;-84
2022/07/05 07:30:11;;;;;;;;;;;17.90;99.90;;;;;;6280616;22;20653;-84
2022/07/05 07:32:37;;;;;;;4.55;1.40;;;18.00;99.90;;;;;;6254679;22;19914;-84
2022/07/05 07:35:03;;;;;;;3.25;1.33;;;18.10;99.90;;;;;;6253726;22;20324;-84
2022/07/05 07:37:28;;;;;;;4.35;1.40;;;18.10;99.90;;;;;;6280109;22;20007;-84
2022/07/05 07:39:54;;;;;;;3.17;1.70;;;18.20;99.90;;;;;;6254154;22;20018;-83
2022/07/05 07:42:20;;;;;;;3.88;1.40;;;18.30;99.90;;;;;;6254532;22;20011;-85
2022/07/05 07:44:45;;;;;;;2.90;1.10;;;18.40;99.90;;;;;;6254539;22;20065;-86
2022/07/05 07:47:11;;;;;;;4.18;1.40;;;18.60;99.90;;;;;;6254442;22;20007;-85
2022/07/05 07:49:37;;;;;;;2.85;1.48;;;18.80;99.90;;;;;;6254116;22;20328;-85
2022/07/05 07:52:04;;;;;;;4.72;1.10;;;19.00;99.90;;;;;;6253342;22;20015;-85
2022/07/05 07:54:29;;;;;;;1.63;1.00;;;19.70;99.90;;;;;;6254275;22;20008;-85
2022/07/05 07:56:55;;;;;;;3.45;1.10;;;20.30;99.90;;;;;;6253683;22;20079;-86
2022/07/05 07:59:20;;;;;;;5.40;1.45;;;20.40;99.90;;;;;;6253689;22;20015;-85
2022/07/05 08:01:46;;;;;;;4.13;1.23;;;20.50;99.90;;;;;;6279357;22;20085;-86
2022/07/05 08:04:13;;;;;;;2.17;0.90;;;21.00;99.90;;;;;;6278902;22;20013;-85
2022/07/05 08:06:39;;;;;;;4.90;1.30;;;21.70;99.90;;;;;;6253436;22;20217;-86
2022/07/05 08:09:04;;;;;;;4.18;1.20;;;22.00;99.90;;;;;;6253587;22;20042;-85
2022/07/05 08:11:30;;;;;;;2.15;0.75;;;22.00;99.90;;;;;;6254206;22;20050;-86
2022/07/05 08:13:56;;;;;;;2.65;0.90;;;21.90;99.90;;;;;;6254233;22;20015;-86
2022/07/05 08:16:21;;;;;;;3.05;1.20;;;21.50;99.90;;;;;;6279429;22;20482;-86
2022/07/05 08:21:51;;;;;;;;;;;20.70;99.90;;;;;;6187519;23;20021;-85
2022/07/05 08:24:16;;;;;;;5.05;1.13;;;20.70;99.90;;;;;;6187052;23;19918;-85
2022/07/05 08:26:42;;;;;;;4.30;1.10;;;21.40;99.90;;;;;;6204792;22;20011;-85
2022/07/05 08:29:10;;;;;;;2.60;0.98;;;22.40;99.90;;;;;;6253715;22;20023;-83
2022/07/05 08:31:42;;;;;;;3.78;0.95;;;23.10;99.90;;;;;;6253693;22;20474;-83
2022/07/05 08:34:08;;;;;;;4.45;1.00;;;23.20;99.90;;;;;;6279008;22;20046;-83
2022/07/05 08:36:34;;;;;;;4.88;1.00;;;23.30;99.90;;;;;;6253423;22;20019;-84
2022/07/05 08:39:00;;;;;;;5.15;0.93;;;23.40;99.90;;;;;;6253851;22;20569;-84
2022/07/05 08:41:26;;;;;;;4.45;1.00;;;23.00;99.90;;;;;;6253899;22;20007;-83
2022/07/05 08:43:52;;;;;;;2.10;0.77;;;22.50;99.90;;;;;;6253417;22;20447;-83
2022/07/05 08:46:18;;;;;;;3.72;0.90;;;22.60;99.90;;;;;;6253793;22;20388;-85
2022/07/05 08:48:47;;;;;;;3.78;0.82;;;22.60;99.90;;;;;;6253611;22;20022;-84
2022/07/05 08:51:22;;;;;;;3.80;0.80;;;22.30;99.90;;;;;;6279520;22;20015;-84
2022/07/05 08:53:49;;;;;;;2.28;0.90;;;22.70;99.90;;;;;;6253761;22;20011;-83
2022/07/05 08:56:16;;;;;;;3.40;1.02;;;23.30;99.90;;;;;;6253541;22;20016;-83
2022/07/05 08:58:42;;;;;;;3.83;0.90;;;24.00;99.90;;;;;;6252527;22;20549;-84
2022/07/05 09:01:09;;;;;;;2.20;0.90;;;24.60;96.10;;;;;;6253618;22;20451;-83
2022/07/05 09:03:42;;;;;;;2.30;0.70;;;25.00;93.70;;;;;;6279193;22;20007;-83
2022/07/05 09:06:11;;;;;;;1.50;0.80;;;25.10;90.00;;;;;;6279169;22;20003;-84
2022/07/05 09:08:40;;;;;;;3.20;0.80;;;24.90;89.50;;;;;;6253225;22;20042;-83
2022/07/05 09:11:11;;;;;;;3.97;0.82;;;24.60;88.60;;;;;;6253061;22;20082;-83
2022/07/05 09:13:40;;;;;;;4.25;0.80;;;24.20;85.70;;;;;;6253543;22;20018;-83
2022/07/05 09:16:06;;;;;;;4.68;1.05;;;23.70;81.80;;;;;;6253215;22;20018;-83
2022/07/05 09:18:50;;;;;;;3.65;0.80;;;23.10;80.50;;;;;;6252954;22;20007;-83
2022/07/05 09:21:27;;;;;;;2.58;0.88;;;22.50;83.40;;;;;;6253590;22;20074;-84
2022/07/05 09:23:59;;;;;;;2.35;0.70;;;22.50;92.00;;;;;;6253634;22;20007;-83
2022/07/05 09:26:33;;;;;;;3.15;1.08;;;23.00;93.50;;;;;;6253057;22;20090;-83
2022/07/05 09:28:59;;;;;;;3.30;0.73;;;23.70;92.30;;;;;;6253243;22;20506;-83
2022/07/05 09:31:27;;;;;;;3.38;0.80;;;24.10;90.10;;;;;;6253340;22;20278;-83
2022/07/05 09:33:52;;;;;;;2.22;0.68;;;24.20;90.10;;;;;;6278949;22;20455;-83
2022/07/05 09:36:18;;;;;;;3.47;0.90;;;24.10;86.00;;;;;;6252520;22;20056;-83
2022/07/05 09:38:50;;;;;;;3.42;1.00;;;23.80;83.80;;;;;;6252619;22;20052;-84
2022/07/05 09:41:16;;;;;;;2.07;0.80;;;23.30;76.50;;;;;;6253226;22;20007;-83
2022/07/05 09:43:41;;;;;;;4.68;1.02;;;23.20;81.20;;;;;;6253114;22;20237;-83
2022/07/05 09:46:08;;;;;;;4.63;0.90;;;23.60;86.90;;;;;;6253319;22;20029;-83
2022/07/05 09:48:34;;;;;;;2.08;0.90;;;24.30;87.10;;;;;;6278485;22;20011;-83
2022/07/05 09:51:11;;;;;;;3.20;0.77;;;24.70;79.90;;;;;;6252899;22;20015;-83
2022/07/05 09:53:46;;;;;;;2.67;0.82;;;25.00;78.70;;;;;;6278656;22;20015;-83
2022/07/05 09:56:13;;;;;;;4.00;0.90;;;25.10;78.10;;;;;;6251569;22;20118;-85
2022/07/05 09:58:39;;;;;;;2.08;0.80;;;25.10;79.30;;;;;;6252167;22;20011;-86
2022/07/05 10:01:27;;;;;;;3.40;0.95;;;24.70;77.30;;;;;;6251420;22;20054;-87
2022/07/05 10:03:58;;;;;;;4.25;0.90;;;24.10;75.10;;;;;;6252012;22;20463;-86
2022/07/05 10:06:25;;;;;;;2.83;0.90;;;23.50;75.60;;;;;;6277772;22;20055;-87
2022/07/05 10:08:52;;;;;;;2.60;1.10;;;23.00;78.20;;;;;;6251387;22;20057;-84
2022/07/05 10:11:19;;;;;;;3.45;1.00;;;22.80;80.30;;;;;;6253212;22;20463;-84
2022/07/05 10:13:51;;;;;;;3.67;1.05;;;23.10;80.90;;;;;;6252988;22;20011;-87
2022/07/05 10:16:18;;;;;;;3.95;1.00;;;23.60;80.90;;;;;;6252854;22;20015;-86
2022/07/05 10:18:46;;;;;;;2.70;0.93;;;24.10;79.60;;;;;;6252432;22;20456;-86
2022/07/05 10:21:15;;;;;;;2.05;1.20;;;24.30;79.70;;;;;;6252611;22;20014;-82
2022/07/05 10:23:53;;;;;;;2.70;1.00;;;24.60;80.10;;;;;;6252187;22;20003;-84
2022/07/05 10:26:20;;;;;;;2.30;1.10;;;24.80;77.30;;;;;;6252781;22;20018;-84
2022/07/05 10:28:51;;;;;;;2.17;1.00;;;24.60;77.30;;;;;;6252009;22;20015;-86
2022/07/05 10:31:18;;;;;;;2.72;1.10;;;24.20;75.20;;;;;;6278055;22;20037;-86
2022/07/05 10:33:45;;;;;;;3.42;0.90;;;23.70;75.10;;;;;;6278634;22;20356;-85
2022/07/05 10:36:12;;;;;;;3.55;0.90;;;23.30;76.80;;;;;;6252695;22;20026;-84
2022/07/05 10:38:41;;;;;;;4.05;1.10;;;22.90;77.20;;;;;;6252346;22;20078;-85
2022/07/05 10:41:10;;;;;;;3.17;1.00;;;22.90;81.70;;;;;;6252906;22;20008;-84
2022/07/05 10:43:36;;;;;;;4.78;1.00;;;23.20;83.70;;;;;;6251941;22;20011;-85
2022/07/05 10:46:06;;;;;;;3.28;0.98;;;23.20;82.30;;;;;;6278257;22;20064;-84
2022/07/05 10:48:32;;;;;;;3.70;1.10;;;22.90;82.30;;;;;;6251976;22;20003;-85
2022/07/05 10:51:07;;;;;;;3.75;1.10;;;22.60;81.50;;;;;;6252100;22;20325;-87
2022/07/05 10:53:35;;;;;;;4.05;1.10;;;22.30;79.80;;;;;;6252949;22;20018;-86
2022/07/05 10:56:04;;;;;;;2.53;1.00;;;22.10;84.10;;;;;;6252577;22;20057;-88
2022/07/05 10:58:37;;;;;;;4.10;1.10;;;22.30;86.80;;;;;;6252442;22;20018;-87
2022/07/05 11:01:11;;;;;;;;;;;22.60;85.50;;;;;;6252252;22;20007;-87
2022/07/05 11:03:42;;;;;;;5.30;1.17;;;22.90;85.90;;;;;;6252894;22;19911;-87
2022/07/05 11:06:08;;;;;;;5.15;1.30;;;23.20;85.90;;;;;;6253231;22;20007;-87
2022/07/05 11:08:57;;;;;;;4.18;1.13;;;23.20;83.40;;;;;;6251955;22;20011;-87
2022/07/05 11:11:30;;;;;;;3.65;1.20;;;23.20;84.10;;;;;;6252418;22;20019;-86
2022/07/05 11:13:58;;;;;;;5.43;1.20;;;23.10;84.20;;;;;;6253206;22;20378;-86
2022/07/05 11:16:29;;;;;;;4.55;0.93;;;22.70;81.90;;;;;;6252188;22;20011;-85
2022/07/05 11:19:16;;;;;;;2.78;0.90;;;22.30;82.10;;;;;;6252629;22;20008;-85
2022/07/05 11:22:00;;;;;;;2.75;1.00;;;22.00;81.90;;;;;;6252242;22;20008;-86
2022/07/05 11:24:31;;;;;;;4.15;1.00;;;21.80;82.30;;;;;;6273341;22;20011;-86
2022/07/05 11:27:03;;;;;;;4.22;1.10;;;21.80;83.70;;;;;;6277890;22;20019;-85
2022/07/05 11:29:55;;;;;;;3.23;1.07;;;22.00;83.20;;;;;;6252196;22;20022;-87
2022/07/05 11:32:22;;;;;;;3.65;1.38;;;22.30;83.50;;;;;;6252384;22;20011;-87
2022/07/05 11:34:53;;;;;;;3.88;1.25;;;22.70;85.50;;;;;;6278032;22;20015;-89
2022/07/05 11:37:28;;;;;;;4.53;1.00;;;23.20;86.10;;;;;;6251144;22;20015;-88
2022/07/05 11:40:11;;;;;;;3.53;1.02;;;23.90;85.10;;;;;;6252092;22;20121;-86
2022/07/05 11:42:57;;;;;;;3.03;1.13;;;24.50;81.00;;;;;;6278946;22;20351;-85
2022/07/05 11:45:24;;;;;;;2.30;1.00;;;24.60;77.80;;;;;;6278978;22;20089;-86
2022/07/05 11:47:54;;;;;;;2.85;1.15;;;24.50;79.80;;;;;;6278860;22;20015;-85
2022/07/05 11:50:26;;;;;;;3.20;0.90;;;24.70;77.80;;;;;;6252908;22;20012;-85
2022/07/05 11:52:51;;;;;;;2.87;1.07;;;24.70;75.60;;;;;;6253738;22;20011;-85
2022/07/05 11:55:18;;;;;;;2.72;0.90;;;24.60;74.90;;;;;;6252978;22;20062;-86
2022/07/05 11:57:51;;;;;;;4.88;1.50;;;24.30;74.50;;;;;;6252319;22;20026;-85
2022/07/05 12:00:35;;;;;;;2.95;0.80;;;24.10;72.20;;;;;;6252556;22;20463;-86
2022/07/05 12:03:13;;;;;;;4.05;1.00;;;23.90;73.00;;;;;;6278754;22;20008;-85
2022/07/05 12:05:42;;;;;;;2.20;0.90;;;24.10;73.30;;;;;;6252916;22;20007;-86
2022/07/05 12:08:09;;;;;;;4.40;0.70;;;24.40;73.80;;;;;;6253792;22;20456;-86
2022/07/05 12:13:19;;;;;;;4.80;0.60;;;24.80;71.00;;;;;;6279368;22;20072;-85
2022/07/05 12:15:46;;;;;;;2.33;0.63;;;24.90;72.60;;;;;;6279138;22;20093;-85
2022/07/05 12:18:12;;;;;;;2.28;0.77;;;25.20;72.30;;;;;;6253233;22;20015;-86
2022/07/05 12:20:39;;;;;;;1.63;0.50;;;25.50;72.20;;;;;;6253233;22;20003;-85
2022/07/05 12:23:05;;;;;;;1.70;0.55;;;25.70;68.60;;;;;;6253793;22;20003;-87
2022/07/05 12:25:32;;;;;;;3.10;0.60;;;25.80;67.20;;;;;;6253383;22;20011;-86
2022/07/05 12:28:03;;;;;;;3.28;0.60;;;25.90;69.30;;;;;;6253415;22;20301;-85
2022/07/05 12:30:32;;;;;;;2.13;0.55;;;26.10;68.10;;;;;;6253557;22;20011;-86
2022/07/05 12:33:05;;;;;;;2.38;0.60;;;26.20;66.20;;;;;;6253692;22;20015;-85
2022/07/05 12:35:36;;;;;;;3.30;0.90;;;26.30;66.10;;;;;;6252986;22;20019;-86
2022/07/05 12:38:06;;;;;;;3.72;0.60;;;26.40;66.90;;;;;;6252124;22;20339;-85
2022/07/05 12:40:33;;;;;;;1.88;0.40;;;26.50;66.10;;;;;;6253879;22;20033;-85
2022/07/05 12:43:07;;;;;;;2.60;0.55;;;26.40;64.40;;;;;;6254060;22;20015;-86
2022/07/05 12:45:34;;;;;;;2.22;0.52;;;26.40;65.30;;;;;;6279091;22;20045;-85
2022/07/05 12:48:02;;;;;;;3.30;0.70;;;26.40;64.30;;;;;;6253340;22;20514;-86
2022/07/05 12:50:31;;;;;;;3.00;0.68;;;26.50;63.40;;;;;;6253900;22;20015;-85
2022/07/05 12:58:51;;;;;;;2.22;0.60;;;25.80;62.50;;;;;;6278811;22;20406;-85
2022/07/05 13:01:21;;;;;;;2.40;0.60;;;25.20;65.60;;;;;;6278560;22;20502;-85
2022/07/05 13:04:06;;;;;;;4.32;0.80;;;25.10;64.50;;;;;;6253093;22;20351;-86
2022/07/05 13:06:40;;;;;;;3.00;0.77;;;25.10;62.90;;;;;;6253049;22;20407;-85
2022/07/05 13:09:06;;;;;;;3.15;0.60;;;25.20;63.70;;;;;;6279538;22;20435;-86
2022/07/05 13:11:32;;;;;;;3.05;0.73;;;25.10;64.20;;;;;;6254221;22;20018;-86
2022/07/05 13:13:58;;;;;;;4.22;0.90;;;24.80;64.60;;;;;;6253755;22;20018;-85
2022/07/05 13:16:23;;;;;;;2.10;0.70;;;24.50;66.10;;;;;;6253443;22;20019;-85
2022/07/05 13:18:49;;;;;;;4.55;0.77;;;24.30;66.70;;;;;;6253594;22;20011;-85
2022/07/05 13:21:15;;;;;;;3.00;0.70;;;24.20;66.90;;;;;;6253530;22;20514;-85
2022/07/05 13:23:40;;;;;;;3.20;0.73;;;24.10;67.10;;;;;;6253562;22;20343;-85
2022/07/05 13:26:07;;;;;;;2.10;0.85;;;24.00;67.90;;;;;;6253124;22;20423;-85
2022/07/05 13:28:32;;;;;;;3.35;0.70;;;23.90;69.30;;;;;;6252535;22;20033;-84
2022/07/05 13:30:58;;;;;;;4.05;0.88;;;23.90;70.10;;;;;;6251599;22;20090;-85
2022/07/05 13:33:24;;;;;;;2.03;0.70;;;24.00;69.00;;;;;;6251667;22;20018;-85
2022/07/05 13:35:50;;;;;;;2.90;0.60;;;24.30;68.00;;;;;;6277635;22;20015;-85
2022/07/05 13:38:15;;;;;;;1.35;0.57;;;24.70;66.70;;;;;;6253130;22;20015;-84
2022/07/05 13:40:41;;;;;;;3.05;0.77;;;25.00;63.90;;;;;;6253281;22;20011;-84
2022/07/05 13:43:07;;;;;;;3.80;0.70;;;24.90;62.50;;;;;;6252107;22;20022;-84
2022/07/05 13:45:32;;;;;;;6.22;0.90;;;24.70;64.30;;;;;;6252877;22;20014;-84
2022/07/05 13:47:58;;;;;;;2.05;0.70;;;24.80;65.50;;;;;;6251821;22;20452;-84
2022/07/05 13:50:33;;;;;;;2.47;0.73;;;25.00;65.50;;;;;;6277368;22;20022;-85
2022/07/05 13:52:59;;;;;;;2.20;0.70;;;25.20;65.50;;;;;;6251710;22;20015;-85
2022/07/05 13:55:25;;;;;;;1.90;0.60;;;25.50;63.90;;;;;;6252707;22;20037;-85
2022/07/05 13:57:51;;;;;;;2.35;0.70;;;25.60;63.40;;;;;;6251927;22;20443;-86
2022/07/05 14:00:17;;;;;;;3.15;0.70;;;25.70;64.70;;;;;;6278281;22;20455;-85
2022/07/05 14:02:44;;;;;;;1.83;0.50;;;25.90;63.90;;;;;;6251648;22;20095;-84
2022/07/05 14:05:10;;;;;;;2.25;0.50;;;26.00;63.60;;;;;;6277858;22;20007;-85
2022/07/05 14:07:36;;;;;;;1.98;0.82;;;26.10;62.90;;;;;;6278507;22;20033;-85
2022/07/05 14:10:03;;;;;;;3.42;0.60;;;26.10;61.80;;;;;;6252377;22;20015;-83
2022/07/05 14:12:28;;;;;;;1.80;0.60;;;26.10;61.10;;;;;;6277931;22;20007;-84
2022/07/05 14:14:54;;;;;;;2.70;1.05;;;25.70;61.50;;;;;;6251230;22;20018;-84
2022/07/05 14:17:20;;;;;;;2.28;0.60;;;25.30;63.20;;;;;;6252944;22;20012;-84
2022/07/05 14:19:45;;;;;;;2.15;0.68;;;24.80;62.20;;;;;;6278469;22;20452;-83